sensor_id;sensor_type;location;lat;lon;timestamp;P1;durP1;ratioP1;P2;durP2;ratioP2
72493;SDS011;60520;49.182;-0.348;2023-03-14T00:02:19;2.10;;;0.90;;
72493;SDS011;60520;49.182;-0.348;2023-03-14T00:04:46;2.47;;;1.00;;
72493;SDS011;60520;49.182;-0.348;2023-03-14T00:07:15;2.90;;;1.00;;
72493;SDS011;60520;49.182;-0.348;2023-03-14T00:09:42;2.42;;;0.80;;
72493;SDS011;60520;49.182;-0.348;2023-03-14T00:12:09;2.08;;;0.93;;
72493;SDS011;60520;49.182;-0.348;2023-03-14T00:14:36;2.40;;;0.90;;
72493;SDS011;60520;49.182;-0.348;2023-03-14T00:17:03;2.35;;;0.95;;
72493;SDS011;60520;49.182;-0.348;2023-03-14T00:19:30;2.90;;;0.93;;
72493;SDS011;60520;49.182;-0.348;2023-03-14T00:21:57;2.47;;;1.00;;
72493;SDS011;60520;49.182;-0.348;2023-03-14T00:24:26;2.42;;;0.82;;
72493;SDS011;60520;49.182;-0.348;2023-03-14T00:26:53;2.53;;;0.80;;
72493;SDS011;60520;49.182;-0.348;2023-03-14T00:29:20;1.80;;;0.85;;
72493;SDS011;60520;49.182;-0.348;2023-03-14T00:31:47;2.70;;;1.10;;
72493;SDS011;60520;49.182;-0.348;2023-03-14T00:34:14;1.52;;;0.90;;
72493;SDS011;60520;49.182;-0.348;2023-03-14T00:36:41;1.98;;;0.90;;
72493;SDS011;60520;49.182;-0.348;2023-03-14T00:39:08;3.08;;;1.20;;
72493;SDS011;60520;49.182;-0.348;2023-03-14T00:41:37;3.45;;;1.13;;
72493;SDS011;60520;49.182;-0.348;2023-03-14T00:44:04;1.80;;;0.80;;
72493;SDS011;60520;49.182;-0.348;2023-03-14T00:46:31;3.17;;;0.70;;
72493;SDS011;60520;49.182;-0.348;2023-03-14T00:48:58;2.10;;;0.85;;
72493;SDS011;60520;49.182;-0.348;2023-03-14T00:51:25;1.88;;;0.85;;
72493;SDS011;60520;49.182;-0.348;2023-03-14T00:53:52;2.20;;;0.88;;
72493;SDS011;60520;49.182;-0.348;2023-03-14T00:56:19;2.22;;;0.82;;
72493;SDS011;60520;49.182;-0.348;2023-03-14T00:58:48;2.15;;;0.80;;
72493;SDS011;60520;49.182;-0.348;2023-03-14T01:01:16;2.35;;;0.88;;
72493;SDS011;60520;49.182;-0.348;2023-03-14T01:03:43;1.77;;;1.00;;
72493;SDS011;60520;49.182;-0.348;2023-03-14T01:06:11;1.60;;;0.75;;
72493;SDS011;60520;49.182;-0.348;2023-03-14T01:08:39;2.10;;;1.08;;
72493;SDS011;60520;49.182;-0.348;2023-03-14T01:11:07;2.00;;;0.60;;
72493;SDS011;60520;49.182;-0.348;2023-03-14T01:13:35;2.13;;;0.68;;
72493;SDS011;60520;49.182;-0.348;2023-03-14T01:16:04;2.38;;;0.98;;
72493;SDS011;60520;49.182;-0.348;2023-03-14T01:18:32;1.98;;;0.80;;
72493;SDS011;60520;49.182;-0.348;2023-03-14T01:20:59;1.45;;;0.68;;
72493;SDS011;60520;49.182;-0.348;2023-03-14T01:23:27;2.25;;;0.93;;
72493;SDS011;60520;49.182;-0.348;2023-03-14T01:25:54;2.08;;;0.93;;
72493;SDS011;60520;49.182;-0.348;2023-03-14T01:28:21;2.47;;;0.90;;
72493;SDS011;60520;49.182;-0.348;2023-03-14T01:30:48;1.92;;;0.80;;
72493;SDS011;60520;49.182;-0.348;2023-03-14T01:33:16;2.25;;;0.90;;
72493;SDS011;60520;49.182;-0.348;2023-03-14T01:35:43;2.25;;;0.73;;
72493;SDS011;60520;49.182;-0.348;2023-03-14T01:38:11;1.95;;;1.10;;
72493;SDS011;60520;49.182;-0.348;2023-03-14T01:40:41;2.20;;;0.90;;
72493;SDS011;60520;49.182;-0.348;2023-03-14T01:43:13;1.52;;;0.65;;
72493;SDS011;60520;49.182;-0.348;2023-03-14T01:46:11;1.60;;;0.70;;
72493;SDS011;60520;49.182;-0.348;2023-03-14T01:48:42;2.03;;;0.80;;
72493;SDS011;60520;49.182;-0.348;2023-03-14T01:51:11;1.33;;;0.60;;
72493;SDS011;60520;49.182;-0.348;2023-03-14T01:53:39;1.70;;;0.85;;
72493;SDS011;60520;49.182;-0.348;2023-03-14T01:56:09;2.53;;;0.70;;
72493;SDS011;60520;49.182;-0.348;2023-03-14T01:58:37;2.10;;;0.85;;
72493;SDS011;60520;49.182;-0.348;2023-03-14T02:01:05;2.60;;;0.88;;
72493;SDS011;60520;49.182;-0.348;2023-03-14T02:03:34;1.30;;;0.60;;
72493;SDS011;60520;49.182;-0.348;2023-03-14T02:06:06;1.48;;;0.70;;
72493;SDS011;60520;49.182;-0.348;2023-03-14T02:08:34;2.47;;;0.80;;
72493;SDS011;60520;49.182;-0.348;2023-03-14T02:11:02;1.98;;;0.80;;
72493;SDS011;60520;49.182;-0.348;2023-03-14T02:13:29;2.35;;;0.77;;
72493;SDS011;60520;49.182;-0.348;2023-03-14T02:15:56;2.67;;;0.80;;
72493;SDS011;60520;49.182;-0.348;2023-03-14T02:18:23;2.00;;;1.00;;
72493;SDS011;60520;49.182;-0.348;2023-03-14T02:20:51;1.27;;;0.77;;
72493;SDS011;60520;49.182;-0.348;2023-03-14T02:23:23;1.38;;;0.70;;
72493;SDS011;60520;49.182;-0.348;2023-03-14T02:25:54;2.35;;;0.70;;
72493;SDS011;60520;49.182;-0.348;2023-03-14T02:28:25;1.83;;;0.88;;
72493;SDS011;60520;49.182;-0.348;2023-03-14T02:30:52;1.98;;;0.70;;
72493;SDS011;60520;49.182;-0.348;2023-03-14T02:33:19;2.13;;;0.75;;
72493;SDS011;60520;49.182;-0.348;2023-03-14T02:35:49;1.42;;;0.70;;
72493;SDS011;60520;49.182;-0.348;2023-03-14T02:38:19;1.80;;;0.85;;
72493;SDS011;60520;49.182;-0.348;2023-03-14T02:40:47;1.45;;;0.55;;
72493;SDS011;60520;49.182;-0.348;2023-03-14T02:43:14;2.33;;;0.90;;
72493;SDS011;60520;49.182;-0.348;2023-03-14T02:45:43;1.48;;;0.65;;
72493;SDS011;60520;49.182;-0.348;2023-03-14T02:48:13;1.67;;;0.70;;
72493;SDS011;60520;49.182;-0.348;2023-03-14T02:50:41;2.70;;;0.98;;
72493;SDS011;60520;49.182;-0.348;2023-03-14T02:53:08;2.08;;;0.82;;
72493;SDS011;60520;49.182;-0.348;2023-03-14T02:55:35;1.83;;;0.70;;
72493;SDS011;60520;49.182;-0.348;2023-03-14T02:58:02;1.95;;;0.77;;
72493;SDS011;60520;49.182;-0.348;2023-03-14T03:00:30;1.30;;;0.70;;
72493;SDS011;60520;49.182;-0.348;2023-03-14T03:02:59;2.10;;;0.80;;
72493;SDS011;60520;49.182;-0.348;2023-03-14T03:05:27;1.67;;;0.73;;
72493;SDS011;60520;49.182;-0.348;2023-03-14T03:07:54;1.55;;;0.82;;
72493;SDS011;60520;49.182;-0.348;2023-03-14T03:10:22;1.65;;;0.82;;
72493;SDS011;60520;49.182;-0.348;2023-03-14T03:12:49;1.60;;;0.70;;
72493;SDS011;60520;49.182;-0.348;2023-03-14T03:15:17;1.50;;;0.65;;
72493;SDS011;60520;49.182;-0.348;2023-03-14T03:17:44;1.17;;;0.57;;
72493;SDS011;60520;49.182;-0.348;2023-03-14T03:20:12;2.70;;;0.77;;
72493;SDS011;60520;49.182;-0.348;2023-03-14T03:22:39;1.10;;;0.60;;
72493;SDS011;60520;49.182;-0.348;2023-03-14T03:25:07;2.05;;;0.82;;
72493;SDS011;60520;49.182;-0.348;2023-03-14T03:27:35;1.42;;;0.75;;
72493;SDS011;60520;49.182;-0.348;2023-03-14T03:30:02;1.83;;;0.80;;
72493;SDS011;60520;49.182;-0.348;2023-03-14T03:32:30;2.42;;;0.88;;
72493;SDS011;60520;49.182;-0.348;2023-03-14T03:34:57;1.38;;;0.70;;
72493;SDS011;60520;49.182;-0.348;2023-03-14T03:37:26;2.17;;;0.90;;
72493;SDS011;60520;49.182;-0.348;2023-03-14T03:39:53;1.30;;;0.68;;
72493;SDS011;60520;49.182;-0.348;2023-03-14T03:42:20;2.15;;;0.93;;
72493;SDS011;60520;49.182;-0.348;2023-03-14T03:44:47;1.38;;;0.80;;
72493;SDS011;60520;49.182;-0.348;2023-03-14T03:47:14;1.10;;;0.70;;
72493;SDS011;60520;49.182;-0.348;2023-03-14T03:49:42;2.10;;;0.80;;
72493;SDS011;60520;49.182;-0.348;2023-03-14T03:52:09;1.77;;;0.73;;
72493;SDS011;60520;49.182;-0.348;2023-03-14T03:54:37;1.58;;;0.80;;
72493;SDS011;60520;49.182;-0.348;2023-03-14T03:57:04;2.25;;;0.70;;
72493;SDS011;60520;49.182;-0.348;2023-03-14T03:59:31;2.03;;;0.75;;
72493;SDS011;60520;49.182;-0.348;2023-03-14T04:01:58;1.52;;;0.63;;
72493;SDS011;60520;49.182;-0.348;2023-03-14T04:04:26;1.85;;;0.80;;
72493;SDS011;60520;49.182;-0.348;2023-03-14T04:06:53;1.20;;;0.77;;
72493;SDS011;60520;49.182;-0.348;2023-03-14T04:09:20;2.10;;;0.73;;
72493;SDS011;60520;49.182;-0.348;2023-03-14T04:11:48;1.50;;;0.70;;
72493;SDS011;60520;49.182;-0.348;2023-03-14T04:14:15;1.02;;;0.60;;
72493;SDS011;60520;49.182;-0.348;2023-03-14T04:16:42;2.40;;;0.82;;
72493;SDS011;60520;49.182;-0.348;2023-03-14T04:19:10;1.23;;;0.60;;
72493;SDS011;60520;49.182;-0.348;2023-03-14T04:21:37;2.53;;;0.80;;
72493;SDS011;60520;49.182;-0.348;2023-03-14T04:24:05;1.65;;;0.88;;
72493;SDS011;60520;49.182;-0.348;2023-03-14T04:26:32;1.80;;;0.60;;
72493;SDS011;60520;49.182;-0.348;2023-03-14T04:29:01;2.00;;;0.90;;
72493;SDS011;60520;49.182;-0.348;2023-03-14T04:31:28;1.55;;;0.70;;
72493;SDS011;60520;49.182;-0.348;2023-03-14T04:33:55;1.25;;;0.60;;
72493;SDS011;60520;49.182;-0.348;2023-03-14T04:36:22;2.10;;;0.90;;
72493;SDS011;60520;49.182;-0.348;2023-03-14T04:38:49;2.28;;;0.80;;
72493;SDS011;60520;49.182;-0.348;2023-03-14T04:41:16;1.33;;;0.70;;
72493;SDS011;60520;49.182;-0.348;2023-03-14T04:43:43;2.33;;;0.80;;
72493;SDS011;60520;49.182;-0.348;2023-03-14T04:46:12;1.20;;;0.60;;
72493;SDS011;60520;49.182;-0.348;2023-03-14T04:48:39;2.40;;;0.85;;
72493;SDS011;60520;49.182;-0.348;2023-03-14T04:51:06;2.45;;;0.80;;
72493;SDS011;60520;49.182;-0.348;2023-03-14T04:53:33;1.42;;;0.70;;
72493;SDS011;60520;49.182;-0.348;2023-03-14T04:56:02;2.08;;;0.70;;
72493;SDS011;60520;49.182;-0.348;2023-03-14T04:58:29;1.23;;;0.80;;
72493;SDS011;60520;49.182;-0.348;2023-03-14T05:01:00;2.08;;;0.85;;
72493;SDS011;60520;49.182;-0.348;2023-03-14T05:03:29;1.75;;;0.70;;
72493;SDS011;60520;49.182;-0.348;2023-03-14T05:05:56;1.35;;;0.60;;
72493;SDS011;60520;49.182;-0.348;2023-03-14T05:08:23;1.90;;;0.88;;
72493;SDS011;60520;49.182;-0.348;2023-03-14T05:10:51;1.88;;;0.73;;
72493;SDS011;60520;49.182;-0.348;2023-03-14T05:13:18;1.30;;;0.73;;
72493;SDS011;60520;49.182;-0.348;2023-03-14T05:15:45;1.77;;;0.77;;
72493;SDS011;60520;49.182;-0.348;2023-03-14T05:18:13;1.63;;;0.70;;
72493;SDS011;60520;49.182;-0.348;2023-03-14T05:20:41;2.00;;;0.70;;
72493;SDS011;60520;49.182;-0.348;2023-03-14T05:23:09;1.58;;;0.70;;
72493;SDS011;60520;49.182;-0.348;2023-03-14T05:25:36;1.98;;;0.77;;
72493;SDS011;60520;49.182;-0.348;2023-03-14T05:28:03;1.88;;;0.80;;
72493;SDS011;60520;49.182;-0.348;2023-03-14T05:30:30;1.10;;;0.60;;
72493;SDS011;60520;49.182;-0.348;2023-03-14T05:32:58;1.42;;;0.70;;
72493;SDS011;60520;49.182;-0.348;2023-03-14T05:35:25;1.95;;;0.80;;
72493;SDS011;60520;49.182;-0.348;2023-03-14T05:37:54;1.60;;;0.73;;
72493;SDS011;60520;49.182;-0.348;2023-03-14T05:40:21;2.50;;;0.85;;
72493;SDS011;60520;49.182;-0.348;2023-03-14T05:42:48;1.38;;;0.63;;
72493;SDS011;60520;49.182;-0.348;2023-03-14T05:45:15;1.77;;;0.82;;
72493;SDS011;60520;49.182;-0.348;2023-03-14T05:47:42;2.22;;;0.73;;
72493;SDS011;60520;49.182;-0.348;2023-03-14T05:50:10;1.45;;;0.70;;
72493;SDS011;60520;49.182;-0.348;2023-03-14T05:52:37;1.88;;;0.63;;
72493;SDS011;60520;49.182;-0.348;2023-03-14T05:55:06;1.45;;;0.75;;
72493;SDS011;60520;49.182;-0.348;2023-03-14T05:57:33;1.15;;;0.73;;
72493;SDS011;60520;49.182;-0.348;2023-03-14T06:00:00;2.13;;;0.80;;
72493;SDS011;60520;49.182;-0.348;2023-03-14T06:02:27;3.35;;;0.90;;
72493;SDS011;60520;49.182;-0.348;2023-03-14T06:04:54;2.00;;;0.63;;
72493;SDS011;60520;49.182;-0.348;2023-03-14T06:07:22;2.05;;;0.80;;
72493;SDS011;60520;49.182;-0.348;2023-03-14T06:09:49;2.33;;;0.70;;
72493;SDS011;60520;49.182;-0.348;2023-03-14T06:12:17;3.03;;;0.80;;
72493;SDS011;60520;49.182;-0.348;2023-03-14T06:14:44;1.13;;;0.70;;
72493;SDS011;60520;49.182;-0.348;2023-03-14T06:17:11;1.40;;;0.60;;
72493;SDS011;60520;49.182;-0.348;2023-03-14T06:19:38;1.33;;;0.60;;
72493;SDS011;60520;49.182;-0.348;2023-03-14T06:22:05;1.80;;;0.68;;
72493;SDS011;60520;49.182;-0.348;2023-03-14T06:24:32;1.08;;;0.60;;
72493;SDS011;60520;49.182;-0.348;2023-03-14T06:27:00;1.40;;;0.70;;
72493;SDS011;60520;49.182;-0.348;2023-03-14T06:29:29;1.95;;;0.60;;
72493;SDS011;60520;49.182;-0.348;2023-03-14T06:31:56;1.80;;;0.63;;
72493;SDS011;60520;49.182;-0.348;2023-03-14T06:34:23;0.93;;;0.55;;
72493;SDS011;60520;49.182;-0.348;2023-03-14T06:36:50;1.13;;;0.52;;
72493;SDS011;60520;49.182;-0.348;2023-03-14T06:39:17;1.45;;;0.70;;
72493;SDS011;60520;49.182;-0.348;2023-03-14T06:41:44;1.20;;;0.60;;
72493;SDS011;60520;49.182;-0.348;2023-03-14T06:44:12;0.85;;;0.50;;
72493;SDS011;60520;49.182;-0.348;2023-03-14T06:46:40;1.10;;;0.50;;
72493;SDS011;60520;49.182;-0.348;2023-03-14T06:49:07;1.58;;;0.60;;
72493;SDS011;60520;49.182;-0.348;2023-03-14T06:51:34;0.82;;;0.52;;
72493;SDS011;60520;49.182;-0.348;2023-03-14T06:54:02;1.27;;;0.52;;
72493;SDS011;60520;49.182;-0.348;2023-03-14T06:56:29;0.65;;;0.40;;
72493;SDS011;60520;49.182;-0.348;2023-03-14T06:58:56;0.75;;;0.43;;
72493;SDS011;60520;49.182;-0.348;2023-03-14T07:01:24;0.85;;;0.40;;
72493;SDS011;60520;49.182;-0.348;2023-03-14T07:03:53;1.13;;;0.43;;
72493;SDS011;60520;49.182;-0.348;2023-03-14T07:06:20;1.17;;;0.50;;
72493;SDS011;60520;49.182;-0.348;2023-03-14T07:08:47;1.23;;;0.50;;
72493;SDS011;60520;49.182;-0.348;2023-03-14T07:11:14;1.05;;;0.60;;
72493;SDS011;60520;49.182;-0.348;2023-03-14T07:13:41;0.43;;;0.30;;
72493;SDS011;60520;49.182;-0.348;2023-03-14T07:16:09;0.80;;;0.50;;
72493;SDS011;60520;49.182;-0.348;2023-03-14T07:18:36;0.77;;;0.40;;
72493;SDS011;60520;49.182;-0.348;2023-03-14T07:21:05;0.88;;;0.40;;
72493;SDS011;60520;49.182;-0.348;2023-03-14T07:23:32;0.85;;;0.50;;
72493;SDS011;60520;49.182;-0.348;2023-03-14T07:25:59;0.60;;;0.40;;
72493;SDS011;60520;49.182;-0.348;2023-03-14T07:28:26;0.70;;;0.40;;
72493;SDS011;60520;49.182;-0.348;2023-03-14T07:30:53;1.15;;;0.40;;
72493;SDS011;60520;49.182;-0.348;2023-03-14T07:33:21;0.80;;;0.50;;
72493;SDS011;60520;49.182;-0.348;2023-03-14T07:35:48;0.80;;;0.40;;
72493;SDS011;60520;49.182;-0.348;2023-03-14T07:38:17;1.17;;;0.40;;
72493;SDS011;60520;49.182;-0.348;2023-03-14T07:40:44;0.73;;;0.47;;
72493;SDS011;60520;49.182;-0.348;2023-03-14T07:43:11;0.50;;;0.40;;
72493;SDS011;60520;49.182;-0.348;2023-03-14T07:45:38;0.70;;;0.43;;
72493;SDS011;60520;49.182;-0.348;2023-03-14T07:48:05;1.00;;;0.30;;
72493;SDS011;60520;49.182;-0.348;2023-03-14T07:50:32;0.50;;;0.40;;
72493;SDS011;60520;49.182;-0.348;2023-03-14T07:52:59;1.08;;;0.50;;
72493;SDS011;60520;49.182;-0.348;2023-03-14T07:55:28;0.90;;;0.40;;
72493;SDS011;60520;49.182;-0.348;2023-03-14T07:57:55;1.20;;;0.50;;
72493;SDS011;60520;49.182;-0.348;2023-03-14T08:00:22;1.00;;;0.57;;
72493;SDS011;60520;49.182;-0.348;2023-03-14T08:02:49;0.68;;;0.45;;
72493;SDS011;60520;49.182;-0.348;2023-03-14T08:05:16;0.63;;;0.40;;
72493;SDS011;60520;49.182;-0.348;2023-03-14T08:07:43;0.77;;;0.43;;
72493;SDS011;60520;49.182;-0.348;2023-03-14T08:10:10;1.13;;;0.50;;
72493;SDS011;60520;49.182;-0.348;2023-03-14T08:12:42;1.60;;;0.52;;
72493;SDS011;60520;49.182;-0.348;2023-03-14T08:15:09;2.28;;;0.50;;
72493;SDS011;60520;49.182;-0.348;2023-03-14T08:17:36;0.75;;;0.50;;
72493;SDS011;60520;49.182;-0.348;2023-03-14T08:20:04;0.90;;;0.57;;
72493;SDS011;60520;49.182;-0.348;2023-03-14T08:22:33;3.35;;;0.50;;
72493;SDS011;60520;49.182;-0.348;2023-03-14T08:25:00;4.68;;;0.57;;
72493;SDS011;60520;49.182;-0.348;2023-03-14T08:27:27;69.40;;;3.47;;
72493;SDS011;60520;49.182;-0.348;2023-03-14T08:29:56;30.80;;;2.22;;
72493;SDS011;60520;49.182;-0.348;2023-03-14T08:32:23;37.70;;;2.47;;
72493;SDS011;60520;49.182;-0.348;2023-03-14T08:34:50;35.50;;;2.13;;
72493;SDS011;60520;49.182;-0.348;2023-03-14T08:37:17;18.77;;;1.45;;
72493;SDS011;60520;49.182;-0.348;2023-03-14T08:39:44;28.42;;;1.20;;
72493;SDS011;60520;49.182;-0.348;2023-03-14T08:42:12;6.78;;;0.80;;
72493;SDS011;60520;49.182;-0.348;2023-03-14T08:44:39;10.18;;;0.77;;
72493;SDS011;60520;49.182;-0.348;2023-03-14T08:47:08;5.18;;;0.80;;
72493;SDS011;60520;49.182;-0.348;2023-03-14T08:49:35;5.40;;;0.70;;
72493;SDS011;60520;49.182;-0.348;2023-03-14T08:52:02;2.88;;;0.73;;
72493;SDS011;60520;49.182;-0.348;2023-03-14T08:54:29;1.30;;;0.60;;
72493;SDS011;60520;49.182;-0.348;2023-03-14T08:56:56;5.72;;;0.65;;
72493;SDS011;60520;49.182;-0.348;2023-03-14T08:59:24;4.50;;;0.60;;
72493;SDS011;60520;49.182;-0.348;2023-03-14T09:01:51;1.13;;;0.63;;
72493;SDS011;60520;49.182;-0.348;2023-03-14T09:04:20;1.20;;;0.50;;
72493;SDS011;60520;49.182;-0.348;2023-03-14T09:06:48;0.90;;;0.50;;
72493;SDS011;60520;49.182;-0.348;2023-03-14T09:09:15;0.80;;;0.40;;
72493;SDS011;60520;49.182;-0.348;2023-03-14T09:11:42;2.13;;;0.50;;
72493;SDS011;60520;49.182;-0.348;2023-03-14T09:14:09;1.90;;;0.40;;
72493;SDS011;60520;49.182;-0.348;2023-03-14T09:16:36;1.88;;;0.60;;
72493;SDS011;60520;49.182;-0.348;2023-03-14T09:19:03;0.88;;;0.40;;
72493;SDS011;60520;49.182;-0.348;2023-03-14T09:21:32;0.75;;;0.50;;
72493;SDS011;60520;49.182;-0.348;2023-03-14T09:23:59;1.40;;;0.63;;
72493;SDS011;60520;49.182;-0.348;2023-03-14T09:26:26;1.00;;;0.50;;
72493;SDS011;60520;49.182;-0.348;2023-03-14T09:28:53;1.20;;;0.40;;
72493;SDS011;60520;49.182;-0.348;2023-03-14T09:31:20;1.25;;;0.60;;
72493;SDS011;60520;49.182;-0.348;2023-03-14T09:33:48;1.48;;;0.65;;
72493;SDS011;60520;49.182;-0.348;2023-03-14T09:36:15;1.33;;;0.60;;
72493;SDS011;60520;49.182;-0.348;2023-03-14T09:38:43;1.15;;;0.50;;
72493;SDS011;60520;49.182;-0.348;2023-03-14T09:41:12;1.00;;;0.50;;
72493;SDS011;60520;49.182;-0.348;2023-03-14T09:43:40;1.30;;;0.60;;
72493;SDS011;60520;49.182;-0.348;2023-03-14T09:46:07;8.68;;;0.90;;
72493;SDS011;60520;49.182;-0.348;2023-03-14T09:48:35;10.85;;;1.00;;
72493;SDS011;60520;49.182;-0.348;2023-03-14T09:51:04;1.92;;;0.50;;
72493;SDS011;60520;49.182;-0.348;2023-03-14T09:53:34;2.55;;;0.50;;
72493;SDS011;60520;49.182;-0.348;2023-03-14T09:56:07;3.63;;;0.60;;
72493;SDS011;60520;49.182;-0.348;2023-03-14T09:58:35;0.90;;;0.40;;
72493;SDS011;60520;49.182;-0.348;2023-03-14T10:01:02;2.30;;;0.70;;
72493;SDS011;60520;49.182;-0.348;2023-03-14T10:03:31;3.17;;;0.60;;
72493;SDS011;60520;49.182;-0.348;2023-03-14T10:05:58;6.78;;;0.80;;
72493;SDS011;60520;49.182;-0.348;2023-03-14T10:08:25;8.30;;;2.03;;
72493;SDS011;60520;49.182;-0.348;2023-03-14T10:10:53;7.85;;;1.88;;
72493;SDS011;60520;49.182;-0.348;2023-03-14T10:13:22;8.70;;;1.42;;
72493;SDS011;60520;49.182;-0.348;2023-03-14T10:15:51;7.60;;;1.50;;
72493;SDS011;60520;49.182;-0.348;2023-03-14T10:18:19;10.15;;;1.30;;
72493;SDS011;60520;49.182;-0.348;2023-03-14T10:20:46;3.88;;;0.90;;
72493;SDS011;60520;49.182;-0.348;2023-03-14T10:23:22;4.63;;;0.93;;
72493;SDS011;60520;49.182;-0.348;2023-03-14T10:25:59;2.45;;;0.80;;
72493;SDS011;60520;49.182;-0.348;2023-03-14T10:28:29;2.88;;;0.90;;
72493;SDS011;60520;49.182;-0.348;2023-03-14T10:30:56;4.63;;;0.90;;
72493;SDS011;60520;49.182;-0.348;2023-03-14T10:33:25;3.60;;;0.80;;
72493;SDS011;60520;49.182;-0.348;2023-03-14T10:35:53;2.53;;;0.70;;
72493;SDS011;60520;49.182;-0.348;2023-03-14T10:38:23;3.83;;;2.00;;
72493;SDS011;60520;49.182;-0.348;2023-03-14T10:40:50;5.35;;;2.15;;
72493;SDS011;60520;49.182;-0.348;2023-03-14T10:43:19;8.70;;;3.90;;
72493;SDS011;60520;49.182;-0.348;2023-03-14T10:45:52;6.05;;;2.10;;
72493;SDS011;60520;49.182;-0.348;2023-03-14T10:48:23;4.35;;;1.63;;
72493;SDS011;60520;49.182;-0.348;2023-03-14T10:50:54;2.72;;;1.27;;
72493;SDS011;60520;49.182;-0.348;2023-03-14T10:53:21;1.83;;;1.25;;
72493;SDS011;60520;49.182;-0.348;2023-03-14T10:55:48;3.13;;;1.00;;
72493;SDS011;60520;49.182;-0.348;2023-03-14T10:58:20;2.97;;;0.82;;
72493;SDS011;60520;49.182;-0.348;2023-03-14T11:00:47;2.97;;;0.90;;
72493;SDS011;60520;49.182;-0.348;2023-03-14T11:03:18;2.65;;;0.90;;
72493;SDS011;60520;49.182;-0.348;2023-03-14T11:05:46;2.95;;;0.80;;
72493;SDS011;60520;49.182;-0.348;2023-03-14T11:08:18;3.10;;;0.70;;
72493;SDS011;60520;49.182;-0.348;2023-03-14T11:10:48;1.98;;;0.88;;
72493;SDS011;60520;49.182;-0.348;2023-03-14T11:13:19;1.10;;;0.60;;
72493;SDS011;60520;49.182;-0.348;2023-03-14T11:15:55;2.50;;;0.80;;
72493;SDS011;60520;49.182;-0.348;2023-03-14T11:18:36;1.13;;;0.60;;
72493;SDS011;60520;49.182;-0.348;2023-03-14T11:21:08;1.13;;;0.70;;
72493;SDS011;60520;49.182;-0.348;2023-03-14T11:23:40;1.00;;;0.60;;
72493;SDS011;60520;49.182;-0.348;2023-03-14T11:26:11;1.15;;;0.60;;
72493;SDS011;60520;49.182;-0.348;2023-03-14T11:28:43;1.52;;;0.50;;
72493;SDS011;60520;49.182;-0.348;2023-03-14T11:31:15;0.88;;;0.60;;
72493;SDS011;60520;49.182;-0.348;2023-03-14T11:33:47;1.20;;;0.70;;
72493;SDS011;60520;49.182;-0.348;2023-03-14T11:36:20;0.80;;;0.60;;
72493;SDS011;60520;49.182;-0.348;2023-03-14T11:38:48;0.95;;;0.60;;
72493;SDS011;60520;49.182;-0.348;2023-03-14T11:41:17;1.15;;;0.70;;
72493;SDS011;60520;49.182;-0.348;2023-03-14T11:43:46;1.98;;;0.70;;
72493;SDS011;60520;49.182;-0.348;2023-03-14T11:46:15;1.70;;;0.70;;
72493;SDS011;60520;49.182;-0.348;2023-03-14T11:48:44;1.85;;;0.60;;
72493;SDS011;60520;49.182;-0.348;2023-03-14T11:51:15;2.10;;;0.75;;
72493;SDS011;60520;49.182;-0.348;2023-03-14T11:53:50;0.88;;;0.57;;
72493;SDS011;60520;49.182;-0.348;2023-03-14T11:56:22;1.63;;;0.55;;
72493;SDS011;60520;49.182;-0.348;2023-03-14T11:58:54;0.98;;;0.50;;
72493;SDS011;60520;49.182;-0.348;2023-03-14T12:01:22;1.52;;;0.75;;
72493;SDS011;60520;49.182;-0.348;2023-03-14T12:03:52;1.30;;;0.60;;
72493;SDS011;60520;49.182;-0.348;2023-03-14T12:06:23;1.23;;;0.45;;
72493;SDS011;60520;49.182;-0.348;2023-03-14T12:08:51;0.88;;;0.60;;
72493;SDS011;60520;49.182;-0.348;2023-03-14T12:11:20;1.20;;;0.50;;
72493;SDS011;60520;49.182;-0.348;2023-03-14T12:13:48;2.85;;;0.65;;
72493;SDS011;60520;49.182;-0.348;2023-03-14T12:16:27;1.08;;;0.60;;
72493;SDS011;60520;49.182;-0.348;2023-03-14T12:18:56;1.02;;;0.40;;
72493;SDS011;60520;49.182;-0.348;2023-03-14T12:21:43;1.27;;;0.45;;
72493;SDS011;60520;49.182;-0.348;2023-03-14T12:24:15;0.85;;;0.50;;
72493;SDS011;60520;49.182;-0.348;2023-03-14T12:26:46;0.55;;;0.40;;
72493;SDS011;60520;49.182;-0.348;2023-03-14T12:29:15;0.68;;;0.50;;
72493;SDS011;60520;49.182;-0.348;2023-03-14T12:31:43;1.38;;;0.40;;
72493;SDS011;60520;49.182;-0.348;2023-03-14T12:34:27;1.00;;;0.50;;
72493;SDS011;60520;49.182;-0.348;2023-03-14T12:36:58;1.08;;;0.50;;
72493;SDS011;60520;49.182;-0.348;2023-03-14T12:39:31;0.30;;;0.30;;
72493;SDS011;60520;49.182;-0.348;2023-03-14T12:42:01;0.73;;;0.40;;
72493;SDS011;60520;49.182;-0.348;2023-03-14T12:44:45;0.70;;;0.40;;
72493;SDS011;60520;49.182;-0.348;2023-03-14T12:49:54;0.40;;;0.30;;
72493;SDS011;60520;49.182;-0.348;2023-03-14T12:52:29;0.75;;;0.50;;
72493;SDS011;60520;49.182;-0.348;2023-03-14T12:54:59;1.00;;;0.40;;
72493;SDS011;60520;49.182;-0.348;2023-03-14T12:57:30;0.82;;;0.40;;
72493;SDS011;60520;49.182;-0.348;2023-03-14T12:59:59;0.55;;;0.32;;
72493;SDS011;60520;49.182;-0.348;2023-03-14T13:02:29;1.25;;;0.40;;
72493;SDS011;60520;49.182;-0.348;2023-03-14T13:05:05;0.90;;;0.30;;
72493;SDS011;60520;49.182;-0.348;2023-03-14T13:10:21;2.40;;;0.57;;
72493;SDS011;60520;49.182;-0.348;2023-03-14T13:12:50;1.52;;;0.50;;
72493;SDS011;60520;49.182;-0.348;2023-03-14T13:15:22;0.75;;;0.30;;
72493;SDS011;60520;49.182;-0.348;2023-03-14T13:17:51;0.95;;;0.32;;
72493;SDS011;60520;49.182;-0.348;2023-03-14T13:20:20;1.08;;;0.40;;
72493;SDS011;60520;49.182;-0.348;2023-03-14T13:22:49;1.05;;;0.45;;
72493;SDS011;60520;49.182;-0.348;2023-03-14T13:25:16;1.60;;;0.30;;
72493;SDS011;60520;49.182;-0.348;2023-03-14T13:27:47;1.00;;;0.30;;
72493;SDS011;60520;49.182;-0.348;2023-03-14T13:30:15;0.95;;;0.40;;
72493;SDS011;60520;49.182;-0.348;2023-03-14T13:32:43;1.17;;;0.50;;
72493;SDS011;60520;49.182;-0.348;2023-03-14T13:35:16;0.80;;;0.32;;
72493;SDS011;60520;49.182;-0.348;2023-03-14T13:37:43;0.85;;;0.47;;
72493;SDS011;60520;49.182;-0.348;2023-03-14T13:40:23;1.52;;;0.50;;
72493;SDS011;60520;49.182;-0.348;2023-03-14T13:43:00;0.65;;;0.30;;
72493;SDS011;60520;49.182;-0.348;2023-03-14T13:45:28;1.20;;;0.40;;
72493;SDS011;60520;49.182;-0.348;2023-03-14T13:47:55;0.47;;;0.30;;
72493;SDS011;60520;49.182;-0.348;2023-03-14T13:50:22;3.72;;;0.40;;
72493;SDS011;60520;49.182;-0.348;2023-03-14T13:52:54;0.57;;;0.35;;
72493;SDS011;60520;49.182;-0.348;2023-03-14T13:55:22;0.88;;;0.40;;
72493;SDS011;60520;49.182;-0.348;2023-03-14T13:57:50;1.35;;;0.50;;
72493;SDS011;60520;49.182;-0.348;2023-03-14T14:00:22;1.10;;;0.30;;
72493;SDS011;60520;49.182;-0.348;2023-03-14T14:02:51;1.85;;;0.50;;
72493;SDS011;60520;49.182;-0.348;2023-03-14T14:05:19;0.73;;;0.40;;
72493;SDS011;60520;49.182;-0.348;2023-03-14T14:07:46;1.45;;;0.50;;
72493;SDS011;60520;49.182;-0.348;2023-03-14T14:10:15;1.73;;;0.45;;
72493;SDS011;60520;49.182;-0.348;2023-03-14T14:12:43;3.08;;;0.47;;
72493;SDS011;60520;49.182;-0.348;2023-03-14T14:15:16;1.23;;;0.32;;
72493;SDS011;60520;49.182;-0.348;2023-03-14T14:17:46;2.00;;;0.40;;
72493;SDS011;60520;49.182;-0.348;2023-03-14T14:20:17;1.35;;;0.40;;
72493;SDS011;60520;49.182;-0.348;2023-03-14T14:22:46;1.60;;;0.40;;
72493;SDS011;60520;49.182;-0.348;2023-03-14T14:25:14;0.60;;;0.40;;
72493;SDS011;60520;49.182;-0.348;2023-03-14T14:27:42;0.60;;;0.40;;
72493;SDS011;60520;49.182;-0.348;2023-03-14T14:30:24;0.60;;;0.40;;
72493;SDS011;60520;49.182;-0.348;2023-03-14T14:32:56;0.30;;;0.28;;
72493;SDS011;60520;49.182;-0.348;2023-03-14T14:35:36;0.70;;;0.40;;
72493;SDS011;60520;49.182;-0.348;2023-03-14T14:38:08;1.40;;;0.40;;
72493;SDS011;60520;49.182;-0.348;2023-03-14T14:40:43;2.38;;;0.40;;
72493;SDS011;60520;49.182;-0.348;2023-03-14T14:43:11;1.83;;;0.38;;
72493;SDS011;60520;49.182;-0.348;2023-03-14T14:45:42;0.90;;;0.40;;
72493;SDS011;60520;49.182;-0.348;2023-03-14T14:48:11;1.90;;;0.35;;